createdAt,value
2022-12-14T00:01:49.091Z,9.23
2022-12-14T00:04:16.397Z,9.80
2022-12-14T00:06:43.347Z,9.30
2022-12-14T00:09:10.057Z,9.13
2022-12-14T00:11:37.090Z,8.80
2022-12-14T00:14:11.939Z,10.02
2022-12-14T00:16:39.716Z,9.60
2022-12-14T00:19:07.444Z,9.05
2022-12-14T00:21:35.342Z,9.27
2022-12-14T00:24:03.223Z,9.05
2022-12-14T00:26:31.999Z,9.30
2022-12-14T00:29:00.868Z,9.98
2022-12-14T00:31:28.432Z,9.48
2022-12-14T00:33:59.078Z,9.40
2022-12-14T00:36:26.712Z,8.38
2022-12-14T00:38:53.895Z,10.02
2022-12-14T00:41:21.277Z,8.75
2022-12-14T00:43:49.474Z,9.57
2022-12-14T00:46:17.699Z,9.00
2022-12-14T00:48:45.039Z,9.68
2022-12-14T00:51:14.822Z,8.50
2022-12-14T00:53:42.222Z,9.65
2022-12-14T00:56:09.405Z,8.95
2022-12-14T00:58:40.106Z,9.35
2022-12-14T01:01:08.915Z,9.07
2022-12-14T01:03:37.610Z,9.02
2022-12-14T01:06:04.585Z,8.30
2022-12-14T01:08:36.602Z,8.35
2022-12-14T01:11:07.473Z,8.48
2022-12-14T01:13:35.682Z,8.15
2022-12-14T01:16:08.310Z,9.15
2022-12-14T01:18:36.451Z,9.30
2022-12-14T01:21:15.667Z,8.88
2022-12-14T01:23:44.257Z,8.85
2022-12-14T01:26:12.643Z,8.52
2022-12-14T01:28:43.820Z,8.43
2022-12-14T01:31:18.527Z,8.20
2022-12-14T01:33:46.235Z,8.80
2022-12-14T01:36:18.400Z,8.75
2022-12-14T01:38:47.110Z,9.20
2022-12-14T01:41:36.824Z,8.57
2022-12-14T01:44:10.308Z,8.18
2022-12-14T01:46:39.439Z,7.90
2022-12-14T01:49:16.817Z,8.27
2022-12-14T01:51:47.966Z,8.00
2022-12-14T01:54:15.710Z,8.27
2022-12-14T01:56:44.795Z,9.02
2022-12-14T01:59:17.476Z,8.65
2022-12-14T02:01:44.662Z,8.40
2022-12-14T02:04:16.136Z,8.05
2022-12-14T02:06:44.338Z,7.78
2022-12-14T02:09:15.587Z,7.82
2022-12-14T02:11:54.552Z,8.27
2022-12-14T02:14:21.505Z,8.27
2022-12-14T02:16:51.606Z,7.88
2022-12-14T02:19:19.052Z,7.93
2022-12-14T02:22:24.874Z,8.00
2022-12-14T02:25:13.469Z,7.30
2022-12-14T02:28:25.388Z,8.23
2022-12-14T02:30:57.800Z,7.05
2022-12-14T02:33:54.871Z,7.25
2022-12-14T02:36:31.875Z,7.57
2022-12-14T02:39:18.278Z,8.05
2022-12-14T02:41:49.061Z,8.48
2022-12-14T02:44:18.379Z,7.97
2022-12-14T02:47:03.698Z,8.38
2022-12-14T02:49:55.682Z,8.50
2022-12-14T02:52:50.080Z,8.43
2022-12-14T02:55:26.391Z,7.63
2022-12-14T02:57:56.394Z,8.38
2022-12-14T03:00:24.716Z,7.60
2022-12-14T03:02:52.041Z,8.50
2022-12-14T03:05:19.038Z,8.00
2022-12-14T03:07:56.638Z,7.65
2022-12-14T03:10:48.890Z,7.85
2022-12-14T03:13:20.173Z,7.47
2022-12-14T03:15:52.675Z,8.88
2022-12-14T03:18:21.862Z,7.97
2022-12-14T03:20:50.172Z,7.75
2022-12-14T03:23:21.395Z,7.95
2022-12-14T03:26:04.493Z,7.70
2022-12-14T03:28:42.371Z,8.10
2022-12-14T03:31:17.923Z,8.13
2022-12-14T03:33:46.928Z,7.20
2022-12-14T03:36:29.119Z,8.00
2022-12-14T03:39:07.303Z,8.13
2022-12-14T03:42:17.043Z,8.25
2022-12-14T03:45:18.910Z,7.90
2022-12-14T03:47:51.745Z,7.60
2022-12-14T03:50:31.033Z,7.30
2022-12-14T03:53:00.429Z,7.90
2022-12-14T03:55:30.615Z,7.75
2022-12-14T03:58:03.637Z,8.50
2022-12-14T04:00:32.772Z,8.63
2022-12-14T04:03:09.466Z,8.20
2022-12-14T04:05:48.945Z,6.93
2022-12-14T04:08:40.139Z,7.63
2022-12-14T04:11:27.063Z,7.50
2022-12-14T04:14:39.752Z,7.72
2022-12-14T04:17:32.691Z,7.82
2022-12-14T04:20:10.457Z,8.27
2022-12-14T04:22:46.142Z,8.57
2022-12-14T04:25:39.711Z,8.43
2022-12-14T04:28:33.890Z,8.40
2022-12-14T04:31:05.091Z,7.90
2022-12-14T04:33:47.022Z,7.43
2022-12-14T04:36:28.163Z,8.48
2022-12-14T04:39:02.277Z,8.70
2022-12-14T04:41:34.354Z,7.80
2022-12-14T04:44:07.041Z,8.80
2022-12-14T04:46:40.598Z,7.57
2022-12-14T04:49:29.560Z,7.57
2022-12-14T04:52:06.278Z,8.02
2022-12-14T04:54:44.028Z,7.05
2022-12-14T04:57:24.936Z,7.50
2022-12-14T04:59:53.175Z,8.45
2022-12-14T05:02:31.818Z,8.32
2022-12-14T05:05:18.136Z,8.07
2022-12-14T05:07:53.357Z,7.05
2022-12-14T05:10:48.146Z,7.63
2022-12-14T05:13:37.731Z,8.30
2022-12-14T05:16:05.061Z,7.72
2022-12-14T05:18:34.824Z,8.20
2022-12-14T05:21:01.643Z,8.07
2022-12-14T05:23:29.646Z,7.57
2022-12-14T05:25:57.286Z,7.75
2022-12-14T05:28:27.089Z,7.78
2022-12-14T05:30:54.546Z,7.97
2022-12-14T05:33:21.809Z,7.88
2022-12-14T05:35:48.911Z,8.60
2022-12-14T05:38:15.984Z,8.75
2022-12-14T05:40:43.136Z,7.97
2022-12-14T05:43:12.515Z,8.65
2022-12-14T05:45:39.694Z,8.20
2022-12-14T05:48:06.773Z,7.70
2022-12-14T05:50:33.618Z,8.02
2022-12-14T05:53:00.496Z,8.63
2022-12-14T05:55:27.276Z,8.38
2022-12-14T05:57:54.393Z,7.75
2022-12-14T06:00:23.687Z,8.88
2022-12-14T06:02:52.388Z,8.13
2022-12-14T06:05:19.309Z,8.82
2022-12-14T06:07:46.284Z,7.97
2022-12-14T06:10:13.328Z,8.63
2022-12-14T06:12:50.414Z,8.63
2022-12-14T06:15:17.353Z,8.98
2022-12-14T06:17:45.199Z,8.35
2022-12-14T06:20:13.697Z,8.25
2022-12-14T06:22:47.241Z,9.02
2022-12-14T06:25:15.041Z,8.52
2022-12-14T06:27:42.244Z,9.32
2022-12-14T06:30:09.993Z,10.82
2022-12-14T06:32:36.855Z,9.65
2022-12-14T06:35:04.573Z,10.75
2022-12-14T06:37:32.003Z,9.13
2022-12-14T06:39:59.073Z,9.13
2022-12-14T06:42:26.839Z,9.30
2022-12-14T06:45:19.189Z,10.77
2022-12-14T06:47:46.022Z,11.07
2022-12-14T06:50:12.881Z,11.93
2022-12-14T06:52:43.669Z,13.82
2022-12-14T06:55:10.496Z,13.40
2022-12-14T06:57:37.663Z,10.93
2022-12-14T07:00:04.893Z,9.93
2022-12-14T07:02:31.890Z,11.90
2022-12-14T07:04:58.760Z,11.68
2022-12-14T07:07:25.638Z,12.75
2022-12-14T07:09:52.526Z,11.55
2022-12-14T07:12:23.706Z,10.25
2022-12-14T07:14:50.666Z,10.35
2022-12-14T07:17:18.357Z,10.45
2022-12-14T07:19:45.286Z,11.35
2022-12-14T07:22:16.107Z,11.48
2022-12-14T07:24:43.505Z,10.88
2022-12-14T07:27:10.546Z,10.75
2022-12-14T07:29:38.036Z,10.32
2022-12-14T07:32:05.440Z,10.98
2022-12-14T07:34:32.734Z,11.32
2022-12-14T07:37:00.824Z,11.05
2022-12-14T07:39:27.862Z,11.40
2022-12-14T07:41:54.919Z,10.70
2022-12-14T07:44:29.392Z,11.05
2022-12-14T07:46:56.499Z,17.05
2022-12-14T07:49:23.956Z,18.55
2022-12-14T07:51:52.573Z,15.10
2022-12-14T07:54:19.695Z,13.35
2022-12-14T07:56:48.141Z,10.95
2022-12-14T07:59:16.768Z,11.05
2022-12-14T08:01:44.465Z,11.45
2022-12-14T08:04:16.512Z,9.98
2022-12-14T08:06:44.343Z,10.02
2022-12-14T08:09:12.482Z,10.55
2022-12-14T08:11:40.184Z,10.30
2022-12-14T08:14:11.381Z,9.95
2022-12-14T08:16:38.819Z,9.93
2022-12-14T08:19:05.791Z,10.48
2022-12-14T08:21:32.987Z,10.82
2022-12-14T08:24:00.057Z,10.43
2022-12-14T08:26:33.525Z,11.10
2022-12-14T08:29:04.579Z,9.75
2022-12-14T08:31:31.921Z,9.93
2022-12-14T08:34:00.858Z,10.13
2022-12-14T08:36:30.022Z,11.05
2022-12-14T08:38:59.484Z,10.88
2022-12-14T08:41:27.583Z,10.95
2022-12-14T08:43:58.057Z,10.32
2022-12-14T08:46:28.076Z,10.82
2022-12-14T08:48:55.664Z,10.23
2022-12-14T08:51:30.111Z,10.05
2022-12-14T08:53:57.236Z,10.60
2022-12-14T08:56:28.481Z,10.07
2022-12-14T08:58:57.033Z,10.10
2022-12-14T09:01:32.143Z,10.65
2022-12-14T09:04:08.195Z,10.23
2022-12-14T09:06:38.028Z,10.55
2022-12-14T09:09:16.061Z,10.88
2022-12-14T09:11:44.703Z,10.63
2022-12-14T09:14:12.235Z,10.60
2022-12-14T09:16:45.407Z,10.45
2022-12-14T09:19:12.701Z,10.68
2022-12-14T09:21:40.142Z,9.90
2022-12-14T09:24:07.205Z,10.40
2022-12-14T09:26:34.331Z,11.00
2022-12-14T09:29:01.419Z,10.98
2022-12-14T09:31:28.750Z,11.20
2022-12-14T09:33:55.786Z,10.48
2022-12-14T09:36:25.936Z,10.63
2022-12-14T09:38:55.503Z,10.30
2022-12-14T09:41:34.839Z,10.18
2022-12-14T09:44:34.606Z,10.35
2022-12-14T09:47:23.166Z,10.70
2022-12-14T09:50:04.583Z,10.57
2022-12-14T09:52:37.205Z,9.07
2022-12-14T09:55:28.425Z,10.77
2022-12-14T09:58:29.043Z,11.25
2022-12-14T10:01:09.053Z,10.45
2022-12-14T10:03:51.602Z,10.80
2022-12-14T10:06:28.513Z,10.80
2022-12-14T10:09:13.757Z,10.68
2022-12-14T10:11:53.839Z,11.13
2022-12-14T10:14:30.369Z,10.93
2022-12-14T10:17:12.129Z,11.75
2022-12-14T10:19:57.491Z,9.98
2022-12-14T10:22:46.429Z,10.65
2022-12-14T10:25:19.013Z,11.38
2022-12-14T10:28:10.514Z,12.15
2022-12-14T10:30:38.476Z,11.38
2022-12-14T10:33:23.830Z,11.77
2022-12-14T10:35:54.261Z,11.68
2022-12-14T10:38:32.077Z,11.45
2022-12-14T10:41:15.595Z,12.02
2022-12-14T10:44:03.889Z,11.13
2022-12-14T10:46:55.976Z,10.30
2022-12-14T10:49:29.586Z,10.63
2022-12-14T10:52:04.376Z,10.75
2022-12-14T10:54:34.375Z,11.15
2022-12-14T10:57:01.499Z,12.63
2022-12-14T10:59:39.741Z,10.73
2022-12-14T11:02:25.901Z,11.10
2022-12-14T11:05:09.693Z,10.20
2022-12-14T11:07:43.584Z,10.55
2022-12-14T11:10:20.977Z,10.32
2022-12-14T11:13:17.933Z,11.70
2022-12-14T11:15:49.627Z,10.95
2022-12-14T11:18:16.555Z,10.70
2022-12-14T11:20:52.469Z,11.45
2022-12-14T11:23:29.451Z,10.25
2022-12-14T11:26:01.319Z,11.05
2022-12-14T11:28:41.581Z,10.55
2022-12-14T11:31:11.555Z,10.27
2022-12-14T11:33:40.987Z,11.05
2022-12-14T11:36:11.547Z,9.77
2022-12-14T11:42:04.833Z,9.95
2022-12-14T11:44:36.470Z,9.93
2022-12-14T11:47:08.564Z,10.65
2022-12-14T11:49:44.052Z,10.55
2022-12-14T11:52:19.885Z,9.88
2022-12-14T11:54:54.234Z,11.27
2022-12-14T11:57:35.043Z,10.23
2022-12-14T12:00:10.539Z,11.43
2022-12-14T12:02:46.905Z,10.60
2022-12-14T12:05:16.659Z,11.20
2022-12-14T12:07:49.661Z,10.75
2022-12-14T12:10:24.079Z,10.93
2022-12-14T12:13:00.086Z,10.77
2022-12-14T12:15:35.334Z,11.32
2022-12-14T12:18:06.068Z,10.82
2022-12-14T12:20:40.701Z,11.20
2022-12-14T12:23:13.715Z,10.98
2022-12-14T12:25:42.225Z,10.98
2022-12-14T12:28:26.455Z,11.27
2022-12-14T12:30:59.159Z,11.65
2022-12-14T12:33:59.311Z,11.63
2022-12-14T12:36:27.066Z,12.10
2022-12-14T12:39:06.003Z,10.50
2022-12-14T12:41:34.250Z,11.40
2022-12-14T12:44:13.321Z,10.80
2022-12-14T12:47:22.385Z,10.57
2022-12-14T12:49:38.051Z,10.93
2022-12-14T12:52:09.476Z,10.23
2022-12-14T12:54:41.606Z,11.35
2022-12-14T12:57:11.950Z,11.32
2022-12-14T12:59:50.983Z,10.90
2022-12-14T13:02:20.816Z,10.60
2022-12-14T13:04:52.828Z,10.68
2022-12-14T13:07:43.576Z,10.18
2022-12-14T13:10:18.267Z,10.63
2022-12-14T13:12:53.065Z,10.85
2022-12-14T13:15:26.872Z,10.82
2022-12-14T13:18:04.350Z,10.50
2022-12-14T13:20:33.636Z,10.52
2022-12-14T13:23:28.274Z,9.98
2022-12-14T13:26:08.431Z,10.35
2022-12-14T13:28:49.872Z,9.85
2022-12-14T13:31:26.055Z,10.57
2022-12-14T13:33:59.113Z,11.00
2022-12-14T13:36:26.086Z,10.25
2022-12-14T13:39:11.761Z,10.48
2022-12-14T13:41:48.776Z,9.80
2022-12-14T13:44:18.723Z,10.35
2022-12-14T13:46:46.017Z,10.73
2022-12-14T13:49:21.376Z,10.82
2022-12-14T13:51:50.070Z,10.18
2022-12-14T13:54:30.164Z,11.02
2022-12-14T13:57:06.326Z,10.15
2022-12-14T13:59:42.108Z,11.07
2022-12-14T14:02:27.854Z,10.68
2022-12-14T14:05:15.054Z,10.50
2022-12-14T14:08:01.618Z,10.80
2022-12-14T14:10:33.776Z,10.63
2022-12-14T14:13:02.674Z,10.82
2022-12-14T14:16:18.809Z,12.10
2022-12-14T14:18:36.381Z,12.13
2022-12-14T14:21:12.331Z,11.95
2022-12-14T14:23:56.345Z,10.70
2022-12-14T14:26:35.183Z,10.48
2022-12-14T14:29:19.522Z,10.75
2022-12-14T14:31:54.227Z,10.52
2022-12-14T14:34:27.141Z,10.70
2022-12-14T14:36:57.571Z,10.73
2022-12-14T14:39:55.704Z,11.80
2022-12-14T14:42:24.694Z,10.70
2022-12-14T14:44:55.091Z,10.65
2022-12-14T14:47:26.941Z,11.10
2022-12-14T14:50:21.596Z,12.05
2022-12-14T14:53:18.189Z,10.63
2022-12-14T14:55:53.641Z,11.30
2022-12-14T14:58:26.107Z,11.07
2022-12-14T15:01:11.120Z,11.10
2022-12-14T15:03:47.305Z,11.25
2022-12-14T15:06:21.506Z,10.73
2022-12-14T15:09:05.456Z,11.35
2022-12-14T15:11:51.685Z,10.90
2022-12-14T15:14:46.711Z,11.25
2022-12-14T15:17:21.867Z,10.82
2022-12-14T15:19:50.554Z,11.02
2022-12-14T15:22:40.587Z,10.60
2022-12-14T15:25:11.818Z,11.40
2022-12-14T15:27:39.771Z,11.85
2022-12-14T15:30:22.581Z,12.35
2022-12-14T15:33:04.083Z,11.25
2022-12-14T15:35:34.765Z,12.50
2022-12-14T15:38:04.023Z,12.57
2022-12-14T15:40:32.402Z,12.25
2022-12-14T15:43:01.488Z,12.95
2022-12-14T15:45:31.460Z,12.65
2022-12-14T15:48:23.963Z,12.00
2022-12-14T15:50:59.297Z,11.27
2022-12-14T15:53:29.329Z,12.05
2022-12-14T15:56:02.929Z,12.50
2022-12-14T15:58:37.757Z,11.65
2022-12-14T16:01:22.922Z,11.20
2022-12-14T16:03:53.051Z,11.88
2022-12-14T16:06:20.882Z,13.40
2022-12-14T16:09:01.887Z,12.82
2022-12-14T16:11:36.152Z,12.23
2022-12-14T16:14:26.281Z,11.77
2022-12-14T16:16:53.508Z,12.20
2022-12-14T16:19:33.700Z,11.88
2022-12-14T16:22:15.705Z,11.63
2022-12-14T16:25:19.055Z,10.98
2022-12-14T16:27:50.916Z,11.75
2022-12-14T16:30:22.076Z,11.05
2022-12-14T16:33:08.342Z,11.23
2022-12-14T16:35:37.607Z,11.20
2022-12-14T16:38:08.636Z,12.40
2022-12-14T16:40:38.230Z,12.05
2022-12-14T16:43:06.852Z,12.68
2022-12-14T16:45:36.699Z,13.10
2022-12-14T16:48:09.703Z,13.18
2022-12-14T16:53:31.677Z,12.25
2022-12-14T16:56:06.402Z,12.80
2022-12-14T16:58:33.823Z,13.13
2022-12-14T17:01:10.912Z,11.75
2022-12-14T17:03:38.362Z,12.00
2022-12-14T17:06:06.717Z,13.40
2022-12-14T17:08:34.229Z,12.25
2022-12-14T17:11:02.244Z,12.00
2022-12-14T17:13:30.119Z,12.70
2022-12-14T17:16:06.557Z,13.65
2022-12-14T17:18:38.003Z,12.80
2022-12-14T17:21:06.436Z,14.10
2022-12-14T17:23:34.247Z,12.63
2022-12-14T17:26:56.099Z,12.93
2022-12-14T17:29:29.774Z,13.45
2022-12-14T17:31:58.026Z,13.82
2022-12-14T17:34:25.435Z,14.32
2022-12-14T17:36:52.497Z,13.07
2022-12-14T17:39:20.561Z,13.45
2022-12-14T17:41:48.564Z,13.23
2022-12-14T17:44:17.795Z,13.95
2022-12-14T17:46:46.803Z,13.73
2022-12-14T17:49:14.508Z,15.00
2022-12-14T17:51:45.008Z,12.73
2022-12-14T17:54:21.516Z,12.82
2022-12-14T17:56:51.774Z,13.15
2022-12-14T17:59:18.680Z,14.00
2022-12-14T18:01:45.533Z,13.68
2022-12-14T18:04:14.035Z,15.18
2022-12-14T18:06:41.270Z,15.50
2022-12-14T18:09:09.392Z,16.30
2022-12-14T18:11:39.204Z,15.75
2022-12-14T18:14:14.008Z,14.93
2022-12-14T18:16:40.757Z,15.98
2022-12-14T18:19:11.183Z,15.82
2022-12-14T18:21:38.228Z,16.42
2022-12-14T18:24:10.859Z,14.68
2022-12-14T18:26:41.735Z,15.63
2022-12-14T18:29:08.572Z,15.52
2022-12-14T18:31:38.202Z,14.85
2022-12-14T18:34:05.462Z,15.98
2022-12-14T18:36:33.310Z,15.88
2022-12-14T18:39:00.386Z,15.32
2022-12-14T18:41:29.742Z,14.75
2022-12-14T18:43:57.147Z,15.10
2022-12-14T18:46:24.623Z,16.50
2022-12-14T18:48:51.847Z,19.30
2022-12-14T18:51:27.030Z,17.35
2022-12-14T18:53:56.886Z,17.63
2022-12-14T18:56:51.974Z,18.88
2022-12-14T18:59:21.471Z,16.83
2022-12-14T19:01:54.514Z,17.90
2022-12-14T19:04:23.698Z,17.20
2022-12-14T19:06:50.861Z,15.90
2022-12-14T19:09:18.309Z,18.48
2022-12-14T19:11:47.054Z,18.42
2022-12-14T19:14:15.477Z,18.15
2022-12-14T19:16:42.874Z,16.67
2022-12-14T19:19:10.102Z,17.00
2022-12-14T19:22:02.618Z,15.73
2022-12-14T19:24:29.885Z,16.70
2022-12-14T19:26:57.027Z,16.55
2022-12-14T19:29:24.131Z,16.63
2022-12-14T19:31:54.207Z,16.63
2022-12-14T19:34:21.954Z,17.17
2022-12-14T19:36:48.736Z,16.85
2022-12-14T19:39:15.774Z,16.15
2022-12-14T19:41:42.948Z,14.75
2022-12-14T19:44:10.213Z,14.27
2022-12-14T19:46:37.108Z,16.55
2022-12-14T19:49:06.154Z,15.40
2022-12-14T19:51:33.879Z,16.73
2022-12-14T19:54:03.059Z,18.27
2022-12-14T19:56:30.036Z,19.70
2022-12-14T19:59:01.001Z,17.58
2022-12-14T20:01:43.319Z,19.95
2022-12-14T20:04:16.572Z,18.73
2022-12-14T20:06:45.285Z,19.15
2022-12-14T20:09:16.903Z,18.42
2022-12-14T20:11:44.564Z,17.77
2022-12-14T20:14:12.690Z,19.33
2022-12-14T20:16:40.671Z,19.48
2022-12-14T20:19:08.898Z,20.17
2022-12-14T20:21:36.036Z,17.98
2022-12-14T20:24:16.977Z,18.23
2022-12-14T20:26:44.385Z,18.38
2022-12-14T20:29:12.017Z,16.80
2022-12-14T20:31:38.958Z,17.73
2022-12-14T20:34:08.805Z,17.48
2022-12-14T20:36:35.861Z,17.70
2022-12-14T20:39:05.553Z,17.50
2022-12-14T20:41:35.388Z,17.67
2022-12-14T20:44:02.619Z,17.58
2022-12-14T20:46:35.052Z,17.23
2022-12-14T20:49:05.282Z,17.67
2022-12-14T20:51:34.358Z,17.90
2022-12-14T20:54:05.249Z,18.75
2022-12-14T20:56:32.204Z,17.45
2022-12-14T20:58:58.973Z,18.67
2022-12-14T21:01:27.874Z,19.23
2022-12-14T21:03:57.745Z,19.70
2022-12-14T21:06:25.180Z,17.73
2022-12-14T21:09:10.538Z,17.55
2022-12-14T21:11:59.153Z,17.95
2022-12-14T21:14:35.071Z,18.77
2022-12-14T21:17:05.259Z,18.00
2022-12-14T21:19:33.378Z,18.42
2022-12-14T21:22:00.683Z,18.55
2022-12-14T21:27:20.002Z,18.27
2022-12-14T21:29:48.765Z,16.63
2022-12-14T21:32:16.090Z,18.85
2022-12-14T21:34:43.402Z,17.63
2022-12-14T21:37:10.773Z,17.75
2022-12-14T21:39:37.911Z,16.85
2022-12-14T21:42:13.225Z,16.77
2022-12-14T21:44:44.732Z,16.63
2022-12-14T21:47:18.110Z,16.85
2022-12-14T21:49:46.401Z,17.17
2022-12-14T21:52:20.850Z,17.27
2022-12-14T21:54:48.062Z,16.67
2022-12-14T21:57:35.460Z,16.08
2022-12-14T22:00:04.775Z,15.65
2022-12-14T22:02:40.009Z,16.20
2022-12-14T22:05:08.459Z,16.08
2022-12-14T22:07:35.363Z,15.32
2022-12-14T22:10:02.462Z,15.57
2022-12-14T22:12:29.860Z,16.20
2022-12-14T22:14:57.017Z,16.08
2022-12-14T22:17:24.031Z,15.60
2022-12-14T22:19:52.183Z,16.27
2022-12-14T22:22:19.079Z,15.93
2022-12-14T22:24:48.541Z,15.40
2022-12-14T22:27:18.669Z,16.27
2022-12-14T22:29:45.721Z,16.35
2022-12-14T22:32:15.988Z,18.25
2022-12-14T22:34:45.593Z,17.75
2022-12-14T22:37:16.735Z,17.83
2022-12-14T22:39:43.666Z,16.75
2022-12-14T22:42:10.665Z,17.52
2022-12-14T22:44:38.370Z,16.50
2022-12-14T22:47:05.214Z,17.88
2022-12-14T22:49:32.091Z,16.35
2022-12-14T22:51:59.123Z,16.58
2022-12-14T22:54:27.682Z,17.48
2022-12-14T22:57:02.356Z,17.08
2022-12-14T22:59:37.698Z,17.35
2022-12-14T23:02:05.353Z,16.48
2022-12-14T23:04:32.263Z,16.83
2022-12-14T23:06:59.277Z,18.00
2022-12-14T23:09:44.939Z,16.63
2022-12-14T23:12:30.364Z,16.13
2022-12-14T23:15:15.878Z,16.52
2022-12-14T23:18:01.497Z,17.23
2022-12-14T23:20:46.932Z,16.48
2022-12-14T23:23:41.586Z,16.20
2022-12-14T23:26:29.231Z,17.20
2022-12-14T23:29:15.038Z,16.38
2022-12-14T23:32:01.274Z,16.48
2022-12-14T23:34:47.862Z,17.40
2022-12-14T23:37:33.424Z,16.40
2022-12-14T23:40:18.984Z,17.23
2022-12-14T23:43:04.400Z,15.50
2022-12-14T23:45:49.712Z,17.98
2022-12-14T23:48:35.478Z,17.58
2022-12-14T23:51:21.490Z,17.58
2022-12-14T23:54:06.791Z,16.92
2022-12-14T23:56:52.964Z,19.45
2022-12-14T23:59:38.489Z,19.75
